Time;durP1;ratioP1;P1;durP2;ratioP2;P2;SDS_P1;SDS_P2;PMS_P1;PMS_P2;Temp;Humidity;BMP_temperature;BMP_pressure;BME280_temperature;BME280_humidity;BME280_pressure;Samples;Min_cycle;Max_cycle;Signal;HPM_P1;HPM_P2
2021/08/02 00:00:24;;;;;;;;;;;;;;;24.50;53.47;100917.78;5081846;28;1199;-68
2021/08/02 00:02:57;;;;;;;;;;;;;;;24.50;53.77;100912.47;5088546;28;1901;-68
2021/08/02 00:05:24;;;;;;;;;;;;;;;24.34;54.64;100906.66;5107093;28;1404;-68
2021/08/02 00:07:56;;;;;;;;;;;;;;;24.43;54.31;100901.47;5090417;28;682;-69
2021/08/02 00:10:24;;;;;;;;;;;;;;;24.46;54.32;100911.88;5108578;28;1185;-69
2021/08/02 00:12:55;;;;;;;;;;;;;;;24.41;54.73;100903.41;5089957;28;1193;-68
2021/08/02 00:15:22;;;;;;;;;;;;;;;24.42;55.06;100904.25;5108809;28;1216;-69
2021/08/02 00:17:48;;;;;;;;;;;;;;;24.41;54.95;100898.06;5108551;28;774;-67
2021/08/02 00:20:17;;;;;;;;;;;;;;;24.34;55.44;100901.34;5108694;28;1228;-67
2021/08/02 00:22:44;;;;;;;;;;;;;;;24.33;55.46;100903.16;5067476;28;1917;-67
2021/08/02 00:25:11;;;;;;;;;;;;;;;24.39;55.29;100904.50;5067814;28;1195;-68
2021/08/02 00:27:38;;;;;;;;;;;;;;;24.28;55.66;100899.16;5081346;28;837;-67
2021/08/02 00:30:06;;;;;;;;;;;;;;;24.35;55.40;100898.53;5087304;28;1161;-68
2021/08/02 00:32:33;;;;;;;;;;;;;;;24.38;54.95;100898.31;5087953;28;798;-68
2021/08/02 00:35:02;;;;;;;;;;;;;;;24.34;55.19;100904.88;5087427;28;1323;-68
2021/08/02 00:37:47;;;;;;;;;;;;;;;24.32;55.46;100900.59;5088179;28;1138;-68
2021/08/02 00:40:16;;;;;;;;;;;;;;;24.28;55.27;100891.19;5087098;28;1314;-67
2021/08/02 00:42:46;;;;;;;;;;;;;;;24.32;55.47;100895.28;5069790;28;1985;-67
2021/08/02 00:45:14;;;;;;;;;;;;;;;24.36;55.12;100900.25;5089143;28;1300;-67
2021/08/02 00:47:41;;;;;;;;;;;;;;;24.30;55.16;100898.06;5088842;28;1092;-68
2021/08/02 00:50:12;;;;;;;;;;;;;;;24.34;55.22;100896.03;5089145;28;1230;-68
2021/08/02 00:52:41;;;;;;;;;;;;;;;24.32;55.21;100901.44;5089013;28;1071;-68
2021/08/02 00:55:08;;;;;;;;;;;;;;;24.29;55.46;100895.50;5089033;28;1240;-68
2021/08/02 00:57:37;;;;;;;;;;;;;;;24.25;55.54;100892.28;5088866;28;1080;-68
2021/08/02 01:00:06;;;;;;;;;;;;;;;24.10;56.28;100887.25;5088860;28;1304;-68
2021/08/02 01:02:37;;;;;;;;;;;;;;;24.21;55.95;100896.13;5088735;28;1914;-68
2021/08/02 01:05:09;;;;;;;;;;;;;;;24.24;55.82;100900.34;5089217;28;1365;-68
2021/08/02 01:07:38;;;;;;;;;;;;;;;24.25;55.83;100889.59;5089119;28;864;-68
2021/08/02 01:10:06;;;;;;;;;;;;;;;24.27;55.70;100894.78;5088828;28;1303;-68
2021/08/02 01:12:34;;;;;;;;;;;;;;;24.27;55.62;100890.31;5087790;28;1047;-69
2021/08/02 01:15:02;;;;;;;;;;;;;;;24.26;55.66;100893.94;5088728;28;1233;-68
2021/08/02 01:17:31;;;;;;;;;;;;;;;24.23;55.70;100893.31;5088722;28;944;-69
2021/08/02 01:19:58;;;;;;;;;;;;;;;24.16;56.23;100898.31;5088317;28;1303;-68
2021/08/02 01:22:27;;;;;;;;;;;;;;;24.22;55.85;100895.16;5088325;28;1985;-68
2021/08/02 01:24:54;;;;;;;;;;;;;;;24.20;55.83;100899.75;5088628;28;1291;-68
2021/08/02 01:27:39;;;;;;;;;;;;;;;24.17;56.24;100894.66;5070503;28;1035;-68
2021/08/02 01:30:14;;;;;;;;;;;;;;;24.21;56.05;100895.28;5088401;28;1304;-68
2021/08/02 01:32:40;;;;;;;;;;;;;;;24.18;56.29;100891.03;5088160;28;1086;-69
2021/08/02 01:35:09;;;;;;;;;;;;;;;24.28;55.88;100896.50;5069797;28;1595;-69
2021/08/02 01:37:36;;;;;;;;;;;;;;;24.23;55.95;100896.84;5088468;28;1040;-69
2021/08/02 01:40:03;;;;;;;;;;;;;;;24.20;56.12;100893.56;5087473;28;1193;-69
2021/08/02 01:42:30;;;;;;;;;;;;;;;24.18;56.44;100891.03;5088174;28;1909;-69
2021/08/02 01:44:56;;;;;;;;;;;;;;;24.13;56.95;100887.91;5088168;28;1318;-68
2021/08/02 01:47:39;;;;;;;;;;;;;;;24.10;57.18;100893.41;5088188;28;765;-68
2021/08/02 01:50:09;;;;;;;;;;;;;;;24.16;56.81;100890.31;5087864;28;1385;-68
2021/08/02 01:52:46;;;;;;;;;;;;;;;24.18;56.76;100893.69;5069736;28;1270;-68
2021/08/02 01:55:17;;;;;;;;;;;;;;;24.12;57.28;100891.50;5088163;28;1374;-68
2021/08/02 01:57:54;;;;;;;;;;;;;;;24.06;57.41;100885.78;5088289;28;1284;-68
2021/08/02 02:00:21;;;;;;;;;;;;;;;24.10;57.47;100887.25;5088136;28;1303;-68
2021/08/02 02:03:00;;;;;;;;;;;;;;;23.95;57.78;100889.28;5087900;28;1938;-68
2021/08/02 02:05:32;;;;;;;;;;;;;;;24.11;57.27;100894.28;5088176;28;1168;-68
2021/08/02 02:08:18;;;;;;;;;;;;;;;24.07;57.56;100896.31;5088113;28;828;-68
2021/08/02 02:10:47;;;;;;;;;;;;;;;24.12;57.36;100891.50;5088173;28;1318;-68
2021/08/02 02:13:15;;;;;;;;;;;;;;;24.09;57.62;100891.72;5087722;28;1088;-69
2021/08/02 02:15:44;;;;;;;;;;;;;;;24.13;57.59;100889.69;5088396;28;1346;-68
2021/08/02 02:18:12;;;;;;;;;;;;;;;24.14;57.62;100889.56;5087999;28;1083;-69
2021/08/02 02:20:38;;;;;;;;;;;;;;;24.07;57.70;100887.47;5087011;28;1208;-68
2021/08/02 02:23:05;;;;;;;;;;;;;;;24.07;57.82;100882.16;5089389;28;1913;-69
2021/08/02 02:25:33;;;;;;;;;;;;;;;24.10;57.70;100885.44;5091795;28;1204;-69
2021/08/02 02:28:00;;;;;;;;;;;;;;;24.05;58.12;100897.38;5091815;28;794;-69
2021/08/02 02:30:26;;;;;;;;;;;;;;;24.04;58.04;100901.88;5091724;28;1242;-69
2021/08/02 02:32:53;;;;;;;;;;;;;;;24.06;57.73;100893.75;5091220;28;1550;-68
2021/08/02 02:35:21;;;;;;;;;;;;;;;24.12;57.40;100891.50;5091314;28;1398;-69
2021/08/02 02:37:48;;;;;;;;;;;;;;;24.10;57.74;100887.25;5091317;28;1083;-69
2021/08/02 02:40:15;;;;;;;;;;;;;;;24.06;57.62;100896.41;5091706;28;1236;-69
2021/08/02 02:42:42;;;;;;;;;;;;;;;24.00;57.79;100889.75;5091374;28;1917;-69
2021/08/02 02:45:08;;;;;;;;;;;;;;;23.99;57.76;100885.41;5091714;28;1382;-69
2021/08/02 02:47:35;;;;;;;;;;;;;;;23.99;57.68;100885.41;5091206;28;775;-69
2021/08/02 02:50:03;;;;;;;;;;;;;;;23.99;57.75;100877.41;5091225;28;1263;-69
2021/08/02 02:52:30;;;;;;;;;;;;;;;23.99;57.68;100881.88;5090919;28;921;-69
2021/08/02 02:54:58;;;;;;;;;;;;;;;23.86;58.24;100880.16;5091194;28;1172;-69
2021/08/02 02:57:25;;;;;;;;;;;;;;;23.95;57.99;100879.47;5091440;28;695;-69
2021/08/02 02:59:52;;;;;;;;;;;;;;;23.87;58.17;100873.88;5091209;28;1210;-69
2021/08/02 03:02:20;;;;;;;;;;;;;;;23.89;58.07;100879.09;5090971;28;1906;-67
2021/08/02 03:04:49;;;;;;;;;;;;;;;23.94;57.84;100883.09;5090832;28;1255;-68
2021/08/02 03:07:16;;;;;;;;;;;;;;;23.82;58.33;100878.72;5090643;28;940;-68
2021/08/02 03:09:45;;;;;;;;;;;;;;;23.99;57.67;100879.22;5090518;28;1239;-68
2021/08/02 03:12:12;;;;;;;;;;;;;;;23.88;58.22;100877.41;5089836;28;1781;-68
2021/08/02 03:14:39;;;;;;;;;;;;;;;23.87;58.06;100870.38;5090664;28;1243;-67
2021/08/02 03:17:09;;;;;;;;;;;;;;;23.83;58.13;100872.41;5090443;28;1186;-67
2021/08/02 03:19:36;;;;;;;;;;;;;;;23.84;58.13;100878.59;5090634;28;1383;-68
2021/08/02 03:22:18;;;;;;;;;;;;;;;23.92;57.78;100879.69;5090433;28;1913;-68
2021/08/02 03:24:50;;;;;;;;;;;;;;;23.89;57.75;100879.09;5089484;28;1326;-67
2021/08/02 03:27:21;;;;;;;;;;;;;;;23.75;57.77;100884.59;5090440;28;833;-68
2021/08/02 03:29:49;;;;;;;;;;;;;;;23.72;57.46;100879.50;5090400;28;1228;-67
2021/08/02 03:32:17;;;;;;;;;;;;;;;23.86;56.81;100888.13;5089852;28;1143;-67
2021/08/02 03:34:45;;;;;;;;;;;;;;;23.78;56.84;100887.03;5089444;28;1377;-68
2021/08/02 03:37:15;;;;;;;;;;;;;;;23.82;56.61;100888.50;5089836;28;709;-68
2021/08/02 03:39:42;;;;;;;;;;;;;;;23.76;56.51;100881.00;5090246;28;1208;-68
2021/08/02 03:42:10;;;;;;;;;;;;;;;23.89;56.33;100892.41;5089905;28;1910;-67
2021/08/02 03:44:37;;;;;;;;;;;;;;;23.89;55.68;100895.06;5090174;28;1447;-68
2021/08/02 03:47:04;;;;;;;;;;;;;;;23.92;55.65;100894.84;5089746;28;775;-68
2021/08/02 03:49:31;;;;;;;;;;;;;;;23.92;55.54;100894.84;5089883;28;1249;-68
2021/08/02 03:51:58;;;;;;;;;;;;;;;23.78;55.61;100898.53;5089963;28;837;-68
2021/08/02 03:54:26;;;;;;;;;;;;;;;23.78;55.33;100898.53;5089647;28;1202;-67
2021/08/02 03:56:53;;;;;;;;;;;;;;;23.86;55.21;100903.28;5089604;28;1260;-68
2021/08/02 03:59:20;;;;;;;;;;;;;;;23.82;54.96;100909.78;5071186;28;1257;-68
2021/08/02 04:01:47;;;;;;;;;;;;;;;23.84;54.84;100907.84;5089957;28;1989;-68
2021/08/02 04:04:14;;;;;;;;;;;;;;;23.82;54.83;100900.00;5089493;28;1322;-68
2021/08/02 04:06:41;;;;;;;;;;;;;;;23.85;54.60;100904.22;5089724;28;833;-68
2021/08/02 04:09:10;;;;;;;;;;;;;;;23.88;54.58;100907.50;5089567;28;1298;-68
2021/08/02 04:11:37;;;;;;;;;;;;;;;23.78;54.77;100903.84;5088904;28;1640;-68
2021/08/02 04:14:05;;;;;;;;;;;;;;;23.87;54.40;100910.28;5089077;28;1305;-68
2021/08/02 04:16:32;;;;;;;;;;;;;;;23.78;54.70;100916.28;5089492;28;1142;-68
2021/08/02 04:18:59;;;;;;;;;;;;;;;23.84;54.29;100913.16;5089654;28;1286;-68
2021/08/02 04:21:25;;;;;;;;;;;;;;;23.84;54.42;100910.50;5089243;28;778;-68
2021/08/02 04:23:54;;;;;;;;;;;;;;;23.76;54.62;100907.59;5088995;28;1918;-68
2021/08/02 04:26:21;;;;;;;;;;;;;;;23.73;54.83;100906.00;5089644;28;1264;-68
2021/08/02 04:28:49;;;;;;;;;;;;;;;23.75;54.83;100903.22;5089606;28;1289;-68
2021/08/02 04:31:16;;;;;;;;;;;;;;;23.75;54.61;100908.53;5088870;28;1622;-68
2021/08/02 04:33:43;;;;;;;;;;;;;;;23.75;54.96;100905.88;5089044;28;1200;-68
2021/08/02 04:36:09;;;;;;;;;;;;;;;23.75;54.67;100916.53;5089391;28;1156;-68
2021/08/02 04:38:36;;;;;;;;;;;;;;;23.72;55.02;100909.63;5088897;28;1072;-68
2021/08/02 04:41:03;;;;;;;;;;;;;;;23.73;55.03;100913.13;5088195;28;1350;-68
2021/08/02 04:43:29;;;;;;;;;;;;;;;23.68;55.26;100910.00;5088994;28;1987;-68
2021/08/02 04:45:56;;;;;;;;;;;;;;;23.75;55.17;100917.38;5071114;28;1318;-68
2021/08/02 04:48:23;;;;;;;;;;;;;;;23.69;55.36;100916.97;5088889;28;1079;-68
2021/08/02 04:50:49;;;;;;;;;;;;;;;23.73;55.46;100921.13;5089152;28;1225;-68
2021/08/02 04:53:16;;;;;;;;;;;;;;;23.74;55.46;100917.50;5088996;28;905;-68
2021/08/02 04:55:42;;;;;;;;;;;;;;;23.68;55.61;100923.28;5088842;28;1212;-68
2021/08/02 04:58:09;;;;;;;;;;;;;;;23.72;55.58;100919.41;5104147;28;884;-68
2021/08/02 05:00:36;;;;;;;;;;;;;;;23.76;55.45;100934.19;5088611;28;1199;-68
2021/08/02 05:03:03;;;;;;;;;;;;;;;23.75;55.58;100936.00;5088644;28;1926;-68
2021/08/02 05:05:30;;;;;;;;;;;;;;;23.78;55.51;100937.56;5088830;28;1260;-67
2021/08/02 05:07:57;;;;;;;;;;;;;;;23.72;55.68;100941.53;5088662;28;1055;-68
2021/08/02 05:10:24;;;;;;;;;;;;;;;23.60;56.26;100941.59;5088740;28;1266;-68
2021/08/02 05:12:51;;;;;;;;;;;;;;;23.69;56.09;100943.56;5070480;28;2463;-68
2021/08/02 05:15:18;;;;;;;;;;;;;;;23.70;55.92;100947.94;5088503;28;1263;-68
2021/08/02 05:17:45;;;;;;;;;;;;;;;23.63;56.18;100949.34;5088378;28;830;-68
2021/08/02 05:20:12;;;;;;;;;;;;;;;23.72;55.89;100954.84;5087259;28;1216;-68
2021/08/02 05:22:38;;;;;;;;;;;;;;;23.64;56.42;100956.38;5088479;28;1913;-68
2021/08/02 05:25:06;;;;;;;;;;;;;;;23.71;56.13;100957.63;5088460;28;1287;-67
2021/08/02 05:27:33;;;;;;;;;;;;;;;23.68;56.36;100965.84;5088293;28;796;-67
2021/08/02 05:29:59;;;;;;;;;;;;;;;23.64;56.45;100965.22;5088215;28;1294;-68
2021/08/02 05:32:26;;;;;;;;;;;;;;;23.60;56.54;100953.09;5087858;28;1172;-68
2021/08/02 05:34:53;;;;;;;;;;;;;;;23.74;56.27;100962.72;5087745;28;1298;-67
2021/08/02 05:37:19;;;;;;;;;;;;;;;23.63;56.66;100954.66;5103519;28;825;-68
2021/08/02 05:39:46;;;;;;;;;;;;;;;23.73;56.31;100967.19;5087707;28;1530;-67
2021/08/02 05:42:13;;;;;;;;;;;;;;;23.67;56.61;100970.31;5087235;28;1914;-68
2021/08/02 05:44:40;;;;;;;;;;;;;;;23.73;56.31;100974.31;5087930;28;1493;-67
2021/08/02 05:47:07;;;;;;;;;;;;;;;23.64;56.83;100975.84;5087991;28;1198;-68
2021/08/02 05:49:33;;;;;;;;;;;;;;;23.60;57.02;100978.84;5087108;28;1494;-68
2021/08/02 05:52:01;;;;;;;;;;;;;;;23.69;56.71;100983.47;5085588;28;1408;-68
2021/08/02 05:54:27;;;;;;;;;;;;;;;23.73;56.78;100987.63;5077177;28;1362;-68
2021/08/02 05:56:54;;;;;;;;;;;;;;;23.71;57.04;100986.88;5087068;28;924;-68
2021/08/02 05:59:20;;;;;;;;;;;;;;;23.75;56.91;100988.34;5090790;28;1208;-67
2021/08/02 06:01:47;;;;;;;;;;;;;;;23.79;56.63;100995.13;5090726;28;849;-68
2021/08/02 06:04:14;;;;;;;;;;;;;;;23.73;56.78;100996.44;5090873;28;1988;-67
2021/08/02 06:06:42;;;;;;;;;;;;;;;23.73;56.52;101000.91;5090801;28;782;-68
2021/08/02 06:09:11;;;;;;;;;;;;;;;23.70;56.99;101001.13;5091427;28;1295;-66
2021/08/02 06:11:38;;;;;;;;;;;;;;;23.62;57.17;100999.03;5073819;28;1309;-67
2021/08/02 06:14:05;;;;;;;;;;;;;;;23.76;56.59;101000.69;5082202;28;1602;-66
2021/08/02 06:16:31;;;;;;;;;;;;;;;23.76;56.69;100993.56;5083006;28;837;-67
2021/08/02 06:19:03;;;;;;;;;;;;;;;23.77;56.76;101010.38;5091276;28;1284;-68
2021/08/02 06:21:30;;;;;;;;;;;;;;;23.79;56.70;101005.78;5090752;28;826;-68
2021/08/02 06:23:57;;;;;;;;;;;;;;;23.77;56.91;101007.72;5090516;28;1909;-67
2021/08/02 06:26:23;;;;;;;;;;;;;;;23.73;57.10;101007.09;5090914;28;813;-68
2021/08/02 06:28:50;;;;;;;;;;;;;;;23.80;56.81;101013.63;5090373;28;1324;-68
2021/08/02 06:31:17;;;;;;;;;;;;;;;23.84;56.92;101008.94;5090634;28;1246;-69
2021/08/02 06:33:44;;;;;;;;;;;;;;;23.74;56.99;101006.09;5089879;28;1169;-67
2021/08/02 06:36:11;;;;;;;;;;;;;;;23.76;56.92;101006.00;5089972;28;1847;-66
2021/08/02 06:38:38;;;;;;;;;;;;;;;23.77;56.82;101007.72;5086514;28;1585;-66
2021/08/02 06:41:05;;;;;;;;;;;;;;;23.83;56.62;101001.94;5081297;28;1444;-67
2021/08/02 06:43:32;;;;;;;;;;;;;;;23.71;56.92;101008.16;5071773;28;1914;-68
2021/08/02 06:45:58;;;;;;;;;;;;;;;23.77;56.68;101013.03;5091144;28;1227;-66
2021/08/02 06:48:25;;;;;;;;;;;;;;;23.79;56.39;101019.06;5091378;28;1256;-67
2021/08/02 06:50:52;;;;;;;;;;;;;;;23.84;56.35;101014.25;5090705;28;1519;-66
2021/08/02 06:53:18;;;;;;;;;;;;;;;23.71;56.69;101014.31;5090969;28;1297;-67
2021/08/02 06:55:47;;;;;;;;;;;;;;;23.76;56.72;101011.31;5091403;28;1213;-67
2021/08/02 06:58:17;;;;;;;;;;;;;;;23.74;56.83;100999.97;5090668;28;1079;-66
2021/08/02 07:00:44;;;;;;;;;;;;;;;23.77;56.89;101008.53;5072606;28;1197;-66
2021/08/02 07:03:11;;;;;;;;;;;;;;;23.83;56.76;101021.38;5090814;28;2005;-66
2021/08/02 07:05:38;;;;;;;;;;;;;;;23.85;56.82;101019.47;5090547;28;1538;-66
2021/08/02 07:08:04;;;;;;;;;;;;;;;23.92;56.65;101026.00;5090696;28;857;-73
2021/08/02 07:10:31;;;;;;;;;;;;;;;23.93;56.89;101024.22;5071240;28;1224;-72
2021/08/02 07:12:58;;;;;;;;;;;;;;;23.92;56.94;101027.84;5089132;28;1506;-73
2021/08/02 07:15:24;;;;;;;;;;;;;;;23.90;57.10;101024.44;5090547;28;1423;-77
2021/08/02 07:17:51;;;;;;;;;;;;;;;23.72;57.50;101021.34;5090724;28;821;-72
2021/08/02 07:20:18;;;;;;;;;;;;;;;23.67;57.78;101019.97;5072109;28;1539;-67
2021/08/02 07:22:44;;;;;;;;;;;;;;;23.73;57.78;101020.38;5090011;28;1913;-64
2021/08/02 07:25:13;;;;;;;;;;;;;;;23.69;57.74;101023.38;5089888;28;1176;-63
2021/08/02 07:27:41;;;;;;;;;;;;;;;23.73;57.68;101023.03;5089868;28;1541;-64
2021/08/02 07:30:09;;;;;;;;;;;;;;;23.82;57.59;101021.50;5071202;28;1502;-65
2021/08/02 07:32:36;;;;;;;;;;;;;;;23.80;57.37;101026.09;5090818;28;877;-68
2021/08/02 07:35:03;;;;;;;;;;;;;;;23.77;57.65;101016.50;5071123;28;1511;-66
2021/08/02 07:37:30;;;;;;;;;;;;;;;23.73;57.75;101023.03;5090254;28;789;-67
2021/08/02 07:39:57;;;;;;;;;;;;;;;23.76;57.95;101021.97;5089210;28;1632;-65
2021/08/02 07:42:25;;;;;;;;;;;;;;;23.88;57.57;101027.22;5089505;28;1545;-67
2021/08/02 07:44:52;;;;;;;;;;;;;;;23.88;57.78;101024.56;5070822;28;1965;-63
2021/08/02 07:47:19;;;;;;;;;;;;;;;23.82;58.01;101026.84;5069391;28;1091;-64
2021/08/02 07:49:46;;;;;;;;;;;;;;;23.77;57.94;101029.00;5076875;28;1956;-64
2021/08/02 07:52:13;;;;;;;;;;;;;;;23.77;58.08;101023.66;5109005;28;833;-65
2021/08/02 07:54:39;;;;;;;;;;;;;;;23.77;57.96;101023.66;5108922;28;1184;-66
2021/08/02 07:57:06;;;;;;;;;;;;;;;23.80;58.02;101026.09;5090089;28;1357;-65
2021/08/02 07:59:33;;;;;;;;;;;;;;;23.85;57.58;101027.47;5089297;28;1286;-68
2021/08/02 08:02:00;;;;;;;;;;;;;;;23.95;57.30;101022.31;5108030;28;1091;-65
2021/08/02 08:04:27;;;;;;;;;;;;;;;23.97;57.66;101023.03;5078686;28;1914;-67
2021/08/02 08:06:53;;;;;;;;;;;;;;;23.93;57.81;101029.53;5087312;28;1234;-67
2021/08/02 08:09:20;;;;;;;;;;;;;;;23.86;57.96;101023.81;5087358;28;1268;-67
2021/08/02 08:11:47;;;;;;;;;;;;;;;23.92;57.55;101027.84;5087949;28;1148;-65
2021/08/02 08:14:13;;;;;;;;;;;;;;;23.94;57.41;101023.25;5086637;28;1327;-66
2021/08/02 08:16:40;;;;;;;;;;;;;;;23.89;57.54;101022.75;5068986;28;980;-66
2021/08/02 08:19:07;;;;;;;;;;;;;;;24.01;57.31;101016.53;5087156;28;1359;-68
2021/08/02 08:21:35;;;;;;;;;;;;;;;23.94;57.52;101013.47;5086635;28;1467;-67
2021/08/02 08:24:05;;;;;;;;;;;;;;;24.00;57.30;101017.47;5088229;28;1909;-65
2021/08/02 08:26:32;;;;;;;;;;;;;;;24.09;57.12;101013.28;5087258;28;783;-68
2021/08/02 08:28:59;;;;;;;;;;;;;;;24.08;57.38;101012.41;5068621;28;1656;-68
2021/08/02 08:31:25;;;;;;;;;;;;;;;24.08;57.33;101007.09;5087336;28;1155;-67
2021/08/02 08:33:52;;;;;;;;;;;;;;;24.02;57.67;101014.69;5086276;28;1298;-69
2021/08/02 08:36:19;;;;;;;;;;;;;;;24.02;57.70;101012.88;5087307;28;1266;-69
2021/08/02 08:38:46;;;;;;;;;;;;;;;24.05;57.61;101015.31;5087244;28;1384;-70
2021/08/02 08:41:13;;;;;;;;;;;;;;;24.11;57.56;101016.69;5087072;28;1273;-67
2021/08/02 08:43:40;;;;;;;;;;;;;;;24.06;57.76;101019.69;5086544;28;1922;-70
2021/08/02 08:46:07;;;;;;;;;;;;;;;24.14;57.58;101011.13;5086386;28;1316;-66
2021/08/02 08:48:34;;;;;;;;;;;;;;;24.15;57.34;101011.03;5085981;28;973;-66
2021/08/02 08:51:02;;;;;;;;;;;;;;;24.18;57.77;101009.97;5086722;28;1318;-65
2021/08/02 08:53:29;;;;;;;;;;;;;;;24.19;57.65;101004.53;5068016;28;1043;-65
2021/08/02 08:55:56;;;;;;;;;;;;;;;24.23;57.84;101011.28;5088502;28;1397;-67
2021/08/02 08:58:23;;;;;;;;;;;;;;;24.28;57.43;101001.16;5097758;28;1046;-64
2021/08/02 09:00:58;;;;;;;;;;;;;;;24.21;57.77;101002.59;5086419;28;1415;-65
2021/08/02 09:03:24;;;;;;;;;;;;;;;24.26;57.46;101007.56;5068167;28;1910;-64
2021/08/02 09:05:59;;;;;;;;;;;;;;;24.27;57.88;101001.28;5051714;28;1475;-66
2021/08/02 09:08:26;;;;;;;;;;;;;;;24.32;57.49;101007.09;5086188;28;1279;-65
2021/08/02 09:10:57;;;;;;;;;;;;;;;24.48;57.44;100983.66;5113760;27;1555;-67
2021/08/02 09:13:30;;;;;;;;;;;;;;;24.40;57.19;100992.25;5087448;28;1580;-67
2021/08/02 09:15:58;;;;;;;;;;;;;;;24.41;57.00;100988.59;5085420;28;1709;-70
2021/08/02 09:18:28;;;;;;;;;;;;;;;24.37;57.11;100989.81;5084471;28;1542;-70
2021/08/02 09:21:01;;;;;;;;;;;;;;;24.39;56.95;100985.22;5101698;28;1501;-70
2021/08/02 09:23:29;;;;;;;;;;;;;;;24.43;56.92;100986.69;5067911;28;1981;-71
2021/08/02 09:26:00;;;;;;;;;;;;;;;24.45;56.95;100987.41;5067820;28;1686;-70
2021/08/02 09:28:28;;;;;;;;;;;;;;;24.44;56.88;100988.34;5086239;28;798;-75
2021/08/02 09:30:56;;;;;;;;;;;;;;;24.49;56.78;100993.34;5085285;28;1217;-71
2021/08/02 09:33:25;;;;;;;;;;;;;;;24.48;56.90;100987.16;5088558;28;1716;-69
2021/08/02 09:35:52;;;;;;;;;;;;;;;24.49;56.57;100990.69;5084825;28;1270;-74
2021/08/02 09:38:20;;;;;;;;;;;;;;;24.47;56.47;100976.63;5110997;28;798;-71
2021/08/02 09:40:49;;;;;;;;;;;;;;;24.53;56.77;100985.97;5090941;28;1614;-71
2021/08/02 09:43:20;;;;;;;;;;;;;;;24.52;56.56;100984.25;5092643;28;1902;-70
2021/08/02 09:46:05;;;;;;;;;;;;;;;24.56;56.30;100981.25;5077849;28;1252;-70
2021/08/02 09:48:42;;;;;;;;;;;;;;;24.57;56.62;100982.94;5089940;28;790;-69
2021/08/02 09:51:12;;;;;;;;;;;;;;;24.60;56.24;100985.38;5071253;28;1423;-69
2021/08/02 09:53:48;;;;;;;;;;;;;;;24.63;56.42;100966.47;5090299;28;817;-69
2021/08/02 09:56:16;;;;;;;;;;;;;;;24.65;56.35;100971.69;5097870;28;1260;-70
2021/08/02 09:59:05;;;;;;;;;;;;;;;24.64;56.87;100965.53;5116634;27;1244;-69
2021/08/02 10:01:32;;;;;;;;;;;;;;;24.68;56.81;100968.78;5068919;28;1519;-68
2021/08/02 10:03:59;;;;;;;;;;;;;;;24.71;57.10;100974.75;5062853;28;1980;-67
2021/08/02 10:06:26;;;;;;;;;;;;;;;24.74;55.96;100966.50;5052793;28;1322;-66
2021/08/02 10:08:54;;;;;;;;;;;;;;;24.71;55.74;100956.09;5069156;28;1530;-64
2021/08/02 10:11:21;;;;;;;;;;;;;;;24.74;55.72;100970.97;5069603;28;1209;-62
2021/08/02 10:13:52;;;;;;;;;;;;;;;24.74;55.65;100970.97;5087659;28;1247;-63
2021/08/02 10:16:22;;;;;;;;;;;;;;;24.79;57.35;100976.78;5089035;28;894;-65
2021/08/02 10:18:50;;;;;;;;;;;;;;;24.84;56.24;100980.81;5089563;28;1244;-64
2021/08/02 10:21:17;;;;;;;;;;;;;;;24.90;57.80;100984.81;5089746;28;1160;-69
2021/08/02 10:23:47;;;;;;;;;;;;;;;24.91;57.92;100987.34;5089769;28;1902;-67
2021/08/02 10:26:17;;;;;;;;;;;;;;;24.90;58.06;100990.97;5089132;28;1792;-67
2021/08/02 10:28:51;;;;;;;;;;;;;;;24.88;57.34;101000.94;5070313;28;1488;-66
2021/08/02 10:31:19;;;;;;;;;;;;;;;24.89;57.88;100994.63;5088971;28;1270;-66
2021/08/02 10:34:11;;;;;;;;;;;;;;;24.88;58.52;100986.75;5087344;28;1272;-66
2021/08/02 10:36:38;;;;;;;;;;;;;;;24.89;56.88;100999.13;5088396;28;774;-65
2021/08/02 10:39:05;;;;;;;;;;;;;;;24.90;58.66;101001.63;5087952;28;1315;-65
2021/08/02 10:41:32;;;;;;;;;;;;;;;24.92;58.63;101001.53;5088372;28;1118;-66
2021/08/02 10:44:10;;;;;;;;;;;;;;;24.89;58.66;100999.97;5087906;28;1922;-65
2021/08/02 10:46:37;;;;;;;;;;;;;;;24.91;58.61;101003.34;5069028;28;793;-65
2021/08/02 10:49:11;;;;;;;;;;;;;;;24.91;57.60;100992.69;5050917;28;1547;-65
2021/08/02 10:51:51;;;;;;;;;;;;;;;24.92;58.34;101010.38;5071852;28;1419;-64
2021/08/02 10:54:18;;;;;;;;;;;;;;;24.94;58.01;101011.09;5104502;28;1346;-65
2021/08/02 10:56:50;;;;;;;;;;;;;;;24.92;57.14;101010.38;5110237;28;786;-65
2021/08/02 10:59:21;;;;;;;;;;;;;;;24.93;58.31;101008.53;5107096;28;1252;-70
2021/08/02 11:01:51;;;;;;;;;;;;;;;24.96;58.07;101008.31;5088834;28;1294;-67
2021/08/02 11:04:19;;;;;;;;;;;;;;;24.96;57.72;101009.16;5087706;28;1993;-67
2021/08/02 11:06:47;;;;;;;;;;;;;;;24.97;57.44;101013.53;5088617;28;1138;-68
2021/08/02 11:09:15;;;;;;;;;;;;;;;25.00;58.00;101012.44;5088272;28;1482;-66
2021/08/02 11:11:43;;;;;;;;;;;;;;;25.03;58.87;101012.19;5089222;28;1632;-66
2021/08/02 11:14:10;;;;;;;;;;;;;;;25.06;59.29;101014.59;5085895;28;1260;-64
2021/08/02 11:16:39;;;;;;;;;;;;;;;25.06;59.48;101017.28;5070133;28;1396;-70
2021/08/02 11:19:25;;;;;;;;;;;;;;;25.06;59.64;101017.28;5067553;28;1483;-64
2021/08/02 11:21:55;;;;;;;;;;;;;;;25.06;59.81;101017.28;5069943;28;820;-63
2021/08/02 11:24:22;;;;;;;;;;;;;;;25.06;58.47;101016.41;5072233;28;1930;-62
2021/08/02 11:26:53;;;;;;;;;;;;;;;25.08;59.63;101011.84;5089969;28;932;-62
2021/08/02 11:29:21;;;;;;;;;;;;;;;25.07;58.12;101012.78;5074547;28;1267;-64
2021/08/02 11:31:55;;;;;;;;;;;;;;;25.05;58.63;101010.22;5073808;28;1005;-65
2021/08/02 11:34:23;;;;;;;;;;;;;;;25.09;58.59;101006.38;5090171;28;1198;-63
2021/08/02 11:37:06;;;;;;;;;;;;;;;25.11;58.34;101012.41;5090255;28;1012;-65
2021/08/02 11:39:34;;;;;;;;;;;;;;;25.08;58.18;101018.00;5092225;28;1353;-61
2021/08/02 11:42:14;;;;;;;;;;;;;;;25.11;58.92;101012.41;5089850;28;1087;-63
2021/08/02 11:44:45;;;;;;;;;;;;;;;25.11;59.37;101009.75;5090371;28;1910;-61
2021/08/02 11:47:16;;;;;;;;;;;;;;;25.12;59.28;101022.13;5099479;28;1706;-66
2021/08/02 11:49:43;;;;;;;;;;;;;;;25.06;58.60;101016.41;5097240;28;1417;-66
2021/08/02 11:52:13;;;;;;;;;;;;;;;25.05;58.79;101018.22;5098911;28;1126;-66
2021/08/02 11:54:40;;;;;;;;;;;;;;;25.04;59.04;101008.56;5087512;28;1390;-64
2021/08/02 11:57:17;;;;;;;;;;;;;;;25.09;59.77;100998.38;5111667;27;1287;-66
2021/08/02 11:59:54;;;;;;;;;;;;;;;25.14;58.62;101004.16;5084934;28;1264;-66
2021/08/02 12:02:37;;;;;;;;;;;;;;;25.20;59.87;101003.69;5087603;28;727;-62
2021/08/02 12:05:06;;;;;;;;;;;;;;;25.15;59.34;100995.22;5087146;28;1984;-71
2021/08/02 12:07:33;;;;;;;;;;;;;;;25.14;58.95;100995.34;5102845;28;1218;-68
2021/08/02 12:10:12;;;;;;;;;;;;;;;25.24;60.31;100994.47;5068910;28;1856;-68
2021/08/02 12:12:59;;;;;;;;;;;;;;;25.22;60.19;100991.09;5095067;28;1158;-70
2021/08/02 12:15:26;;;;;;;;;;;;;;;25.19;59.44;100994.00;5100577;28;1213;-64
2021/08/02 12:17:54;;;;;;;;;;;;;;;25.17;60.50;100979.13;5108041;28;1136;-64
2021/08/02 12:20:28;;;;;;;;;;;;;;;25.22;60.73;100974.25;5089689;28;1389;-61
2021/08/02 12:22:55;;;;;;;;;;;;;;;25.19;59.74;100975.34;5070122;28;861;-61
2021/08/02 12:25:33;;;;;;;;;;;;;;;25.21;59.82;100973.41;5068752;28;1913;-61
2021/08/02 12:28:00;;;;;;;;;;;;;;;25.17;58.90;100976.44;5084508;28;1251;-61
2021/08/02 12:30:27;;;;;;;;;;;;;;;25.26;59.32;100971.19;5052136;28;1467;-61
2021/08/02 12:32:54;;;;;;;;;;;;;;;25.20;58.39;100973.53;5087655;28;1446;-60
2021/08/02 12:35:21;;;;;;;;;;;;;;;25.22;60.33;100985.75;5087432;28;1306;-61
2021/08/02 12:37:48;;;;;;;;;;;;;;;25.19;59.49;100980.69;5087114;28;798;-62
2021/08/02 12:40:16;;;;;;;;;;;;;;;25.18;59.99;100989.63;5087731;28;1217;-63
2021/08/02 12:42:45;;;;;;;;;;;;;;;25.25;59.73;100982.84;5087428;28;1604;-69
2021/08/02 12:45:13;;;;;;;;;;;;;;;25.40;59.95;100978.09;5086496;28;1984;-66
2021/08/02 12:47:44;;;;;;;;;;;;;;;25.38;59.83;100964.88;5086680;28;1154;-68
2021/08/02 12:50:13;;;;;;;;;;;;;;;25.39;59.63;100968.38;5068557;28;1283;-73
2021/08/02 12:52:40;;;;;;;;;;;;;;;25.41;60.83;100969.13;5069154;28;786;-71
2021/08/02 12:55:09;;;;;;;;;;;;;;;25.42;60.09;100966.31;5087678;28;1313;-68